Time;durP1;ratioP1;P1;durP2;ratioP2;P2;SDS_P1;SDS_P2;PMS_P1;PMS_P2;Temp;Humidity;BMP_temperature;BMP_pressure;BME280_temperature;BME280_humidity;BME280_pressure;Samples;Min_cycle;Max_cycle;Signal;HPM_P1;HPM_P2
2022/03/13 00:02:09;;;;;;;15.25;7.28;;;;;;;9.91;57.54;101423.50;5053057;28;20023;-85
2022/03/13 00:04:36;;;;;;;15.98;8.05;;;;;;;9.99;57.33;101431.25;5052839;28;20079;-85
2022/03/13 00:07:04;;;;;;;;;;;;;;;9.94;57.88;101428.69;5053388;28;20049;-85
2022/03/13 00:09:31;;;;;;;17.15;8.07;;;;;;;10.00;57.61;101427.81;5052650;28;19993;-85
2022/03/13 00:11:57;;;;;;;;;;;;;;;9.94;57.49;101427.84;5053724;28;20032;-84
2022/03/13 00:14:25;;;;;;;16.88;7.72;;;;;;;9.92;57.81;101427.81;5052199;28;19912;-84
2022/03/13 00:16:52;;;;;;;15.18;7.18;;;;;;;9.91;57.49;101426.09;5057043;28;20025;-85
2022/03/13 00:19:19;;;;;;;13.45;6.45;;;;;;;9.91;57.37;101422.66;5072855;28;20036;-85
2022/03/13 00:21:51;;;;;;;15.00;6.82;;;;;;;9.88;58.00;101420.94;5072791;28;20370;-85
2022/03/13 00:24:20;;;;;;;13.98;6.82;;;;;;;9.88;57.60;101420.94;5072283;28;20085;-85
2022/03/13 00:26:51;;;;;;;13.80;6.68;;;;;;;9.87;57.60;101424.41;5073626;28;20025;-85
2022/03/13 00:29:16;;;;;;;13.90;6.43;;;;;;;9.88;57.54;101420.94;5072732;28;20096;-86
2022/03/13 00:31:42;;;;;;;12.97;6.33;;;;;;;9.88;57.70;101426.97;5072297;28;20116;-85
2022/03/13 00:34:10;;;;;;;11.87;5.93;;;;;;;9.93;57.83;101420.94;5072629;28;20024;-85
2022/03/13 00:36:35;;;;;;;14.73;6.63;;;;;;;9.87;57.80;101406.25;5072873;28;20046;-85
2022/03/13 00:39:01;;;;;;;15.67;7.50;;;;;;;9.92;57.51;101407.09;5072313;28;20020;-85
2022/03/13 00:41:26;;;;;;;16.77;7.90;;;;;;;9.89;58.22;101402.78;5071759;28;20138;-85
2022/03/13 00:43:51;;;;;;;14.97;6.90;;;;;;;9.84;58.28;101395.88;5072600;28;20025;-85
2022/03/13 00:46:17;;;;;;;13.03;6.47;;;;;;;9.81;58.08;101395.88;5071313;28;20053;-85
2022/03/13 00:48:42;;;;;;;13.80;6.63;;;;;;;9.82;57.87;101397.59;5071972;28;20055;-85
2022/03/13 00:51:08;;;;;;;12.60;6.40;;;;;;;9.87;57.92;101395.88;5072793;28;20380;-86
2022/03/13 00:53:33;;;;;;;14.43;7.05;;;;;;;9.80;57.99;101401.94;5072142;28;20097;-85
2022/03/13 00:55:59;;;;;;;14.20;6.53;;;;;;;9.74;58.44;101398.50;5072387;28;20021;-85
2022/03/13 00:58:24;;;;;;;11.90;5.93;;;;;;;9.70;58.84;101393.34;5071786;28;20025;-85
2022/03/13 01:00:49;;;;;;;12.60;6.30;;;;;;;9.72;57.87;101386.44;5072780;28;20032;-85
2022/03/13 01:03:47;;;;;;;14.53;6.90;;;;;;;9.66;58.16;101389.91;5072693;28;20368;-85
2022/03/13 01:06:13;;;;;;;14.90;6.93;;;;;;;9.64;57.92;101380.38;5071991;28;20021;-85
2022/03/13 01:08:40;;;;;;;13.30;6.73;;;;;;;9.60;58.24;101374.34;5071884;28;20028;-85
2022/03/13 01:11:05;;;;;;;15.82;7.38;;;;;;;9.58;58.72;101376.06;5071794;28;20051;-85
2022/03/13 01:13:31;;;;;;;15.43;7.10;;;;;;;9.51;58.51;101375.25;5071245;28;20472;-85
2022/03/13 01:16:20;;;;;;;16.87;7.30;;;;;;;9.50;58.92;101370.94;5071545;28;20070;-85
2022/03/13 01:18:51;;;;;;;13.40;6.15;;;;;;;9.47;58.21;101370.06;5072673;28;20400;-85
2022/03/13 01:21:17;;;;;;;13.40;6.43;;;;;;;9.45;59.30;101362.28;5071669;28;20538;-85
2022/03/13 01:24:13;;;;;;;13.63;6.18;;;;;;;9.40;58.87;101366.66;5072275;28;20027;-85
2022/03/13 01:26:39;;;;;;;;;;;;;;;9.34;59.04;101367.53;5071203;28;20025;-84
2022/03/13 01:29:08;;;;;;;12.95;6.07;;;;;;;9.28;59.06;101359.75;5076367;28;19919;-85
2022/03/13 01:31:36;;;;;;;13.35;5.93;;;;;;;9.22;60.01;101354.59;5075759;28;20020;-85
2022/03/13 01:34:03;;;;;;;13.50;5.90;;;;;;;9.19;59.09;101359.75;5075344;28;20024;-85
2022/03/13 01:36:28;;;;;;;11.93;5.15;;;;;;;9.15;58.92;101350.25;5075529;28;20020;-85
2022/03/13 01:38:57;;;;;;;12.07;5.67;;;;;;;9.20;58.95;101358.91;5077092;28;20025;-85
2022/03/13 01:41:23;;;;;;;12.05;5.53;;;;;;;9.10;58.99;101343.38;5077296;28;20059;-85
2022/03/13 01:43:49;;;;;;;;;;;;;;;9.07;60.19;101352.84;5077196;28;20090;-84
2022/03/13 01:46:15;;;;;;;10.47;5.23;;;;;;;9.02;59.69;101345.09;5076039;28;19920;-85
2022/03/13 01:49:03;;;;;;;11.47;4.93;;;;;;;8.99;59.64;101339.94;5075289;28;20059;-85
2022/03/13 01:51:31;;;;;;;10.13;5.10;;;;;;;8.93;59.48;101330.44;5075485;28;20026;-85
2022/03/13 01:53:58;;;;;;;12.95;5.55;;;;;;;8.88;60.08;101320.97;5075796;28;20032;-84
2022/03/13 01:56:24;;;;;;;11.55;4.85;;;;;;;8.85;59.61;101326.13;5074934;28;20017;-85
2022/03/13 01:58:53;;;;;;;11.35;4.95;;;;;;;8.78;60.18;101325.25;5075451;28;20024;-85
2022/03/13 02:01:20;;;;;;;9.25;4.70;;;;;;;8.75;61.48;101331.31;5075291;28;20103;-84
2022/03/13 02:03:46;;;;;;;9.30;4.68;;;;;;;8.66;60.95;101331.31;5075095;28;20107;-85
2022/03/13 02:06:12;;;;;;;9.77;4.63;;;;;;;8.61;61.42;101333.88;5075527;28;20052;-85
2022/03/13 02:08:37;;;;;;;7.37;3.83;;;;;;;8.52;61.27;101326.09;5075151;28;20060;-85
2022/03/13 02:11:03;;;;;;;8.80;4.37;;;;;;;8.51;61.04;101324.38;5074412;28;20456;-84
2022/03/13 02:13:29;;;;;;;8.67;4.23;;;;;;;8.48;62.12;101325.25;5074601;28;20016;-85
2022/03/13 02:15:55;;;;;;;10.70;4.87;;;;;;;8.45;62.03;101314.84;5074221;28;20029;-85
2022/03/13 02:18:20;;;;;;;12.63;5.68;;;;;;;8.42;62.33;101320.03;5074413;28;20031;-84
2022/03/13 02:20:46;;;;;;;11.35;5.40;;;;;;;8.48;60.53;101316.63;5073875;28;20436;-85
2022/03/13 02:23:25;;;;;;;11.90;5.93;;;;;;;8.39;62.39;101309.69;5074185;28;20104;-85
2022/03/13 02:26:01;;;;;;;11.07;5.60;;;;;;;8.40;61.61;101313.13;5075205;28;20033;-85
2022/03/13 02:28:30;;;;;;;11.80;5.67;;;;;;;8.40;62.11;101311.41;5074662;28;20384;-85
2022/03/13 02:31:01;;;;;;;9.30;4.93;;;;;;;8.40;62.07;101314.00;5075332;28;20025;-85
2022/03/13 02:33:26;;;;;;;9.38;4.95;;;;;;;8.39;61.70;101320.03;5074733;28;20433;-85
2022/03/13 02:35:59;;;;;;;8.00;4.40;;;;;;;8.41;61.95;101320.91;5075051;28;20111;-85
2022/03/13 02:38:29;;;;;;;10.35;4.75;;;;;;;8.41;62.46;101317.44;5073428;28;20028;-85
2022/03/13 02:41:04;;;;;;;8.27;4.43;;;;;;;8.38;61.41;101320.03;5074639;28;20060;-85
2022/03/13 02:43:42;;;;;;;8.95;4.55;;;;;;;8.40;61.33;101316.59;5074670;28;20473;-85
2022/03/13 02:46:19;;;;;;;7.45;4.03;;;;;;;8.44;61.54;101320.03;5074078;28;20523;-85
2022/03/13 02:48:45;;;;;;;7.30;3.80;;;;;;;8.41;62.61;101318.31;5074666;28;20045;-85
2022/03/13 02:51:13;;;;;;;8.80;4.50;;;;;;;8.39;63.00;101314.00;5074367;28;20060;-85
2022/03/13 02:53:38;;;;;;;10.43;4.78;;;;;;;8.34;63.83;101314.84;5074503;28;20423;-85
2022/03/13 02:56:05;;;;;;;9.20;4.77;;;;;;;8.33;62.90;101307.09;5077929;28;20040;-85
2022/03/13 02:58:30;;;;;;;9.88;5.15;;;;;;;8.33;62.20;101312.28;5075101;28;20017;-85
2022/03/13 03:00:56;;;;;;;8.50;4.17;;;;;;;8.33;62.52;101309.69;5074761;28;20037;-85
2022/03/13 03:03:22;;;;;;;9.10;4.70;;;;;;;8.32;62.81;101303.63;5074153;28;20438;-85
2022/03/13 03:05:48;;;;;;;13.57;5.97;;;;;;;8.29;62.71;101303.63;5074791;28;20146;-86
2022/03/13 03:08:14;;;;;;;11.68;5.80;;;;;;;8.32;62.12;101308.81;5093331;28;20020;-84
2022/03/13 03:10:40;;;;;;;12.13;5.90;;;;;;;8.31;63.41;101298.47;5074049;28;20031;-85
2022/03/13 03:13:07;;;;;;;14.70;7.10;;;;;;;8.31;63.93;101295.88;5073911;28;20024;-85
2022/03/13 03:15:33;;;;;;;14.82;6.75;;;;;;;8.28;63.92;101299.31;5073849;28;20326;-85
2022/03/13 03:17:59;;;;;;;13.67;6.30;;;;;;;8.29;63.20;101300.19;5073876;28;20074;-85
2022/03/13 03:20:25;;;;;;;12.38;5.90;;;;;;;8.28;62.62;101293.28;5073456;28;20734;-85
2022/03/13 03:22:52;;;;;;;13.30;6.63;;;;;;;8.30;62.45;101289.00;5073412;28;20024;-85
2022/03/13 03:25:23;;;;;;;13.88;6.45;;;;;;;8.27;62.95;101289.84;5073604;28;20082;-85
2022/03/13 03:27:50;;;;;;;13.82;6.32;;;;;;;8.25;63.17;101296.75;5073472;28;20052;-85
2022/03/13 03:30:18;;;;;;;;;;;;;;;8.25;63.44;101293.28;5073950;28;20568;-84
2022/03/13 03:32:43;;;;;;;14.02;6.10;;;;;;;8.22;64.02;101293.31;5073786;28;19918;-85
2022/03/13 03:35:08;;;;;;;12.17;6.00;;;;;;;8.19;64.37;101286.38;5073323;28;20540;-85
2022/03/13 03:37:34;;;;;;;12.00;5.60;;;;;;;8.18;63.46;101292.41;5073556;28;20028;-85
2022/03/13 03:39:59;;;;;;;9.87;5.00;;;;;;;8.11;64.12;101272.59;5073657;28;20472;-85
2022/03/13 03:42:25;;;;;;;11.73;5.30;;;;;;;8.14;64.60;101282.94;5072931;28;20381;-85
2022/03/13 03:44:50;;;;;;;12.03;5.27;;;;;;;8.11;65.32;101286.34;5073434;28;20067;-85
2022/03/13 03:47:16;;;;;;;14.07;6.13;;;;;;;8.07;64.20;101287.22;5072489;28;20024;-85
2022/03/13 03:49:44;;;;;;;14.37;6.80;;;;;;;8.06;65.78;101284.63;5073006;28;20406;-85
2022/03/13 03:52:09;;;;;;;9.90;5.40;;;;;;;8.05;65.35;101286.34;5073252;28;20113;-85
2022/03/13 03:54:34;;;;;;;10.87;5.50;;;;;;;8.02;65.43;101281.16;5072662;28;20603;-85
2022/03/13 03:57:00;;;;;;;10.93;5.43;;;;;;;7.99;65.07;101279.44;5073460;28;20037;-86
2022/03/13 03:59:25;;;;;;;10.70;5.33;;;;;;;8.09;63.51;101288.09;5073130;28;20040;-86
2022/03/13 04:01:50;;;;;;;13.70;6.57;;;;;;;7.99;65.73;101289.78;5072920;28;20024;-85
2022/03/13 04:04:16;;;;;;;14.30;6.47;;;;;;;8.02;65.86;101291.50;5072912;28;20044;-86
2022/03/13 04:06:42;;;;;;;14.95;6.95;;;;;;;7.96;65.93;101281.16;5072898;28;20384;-85
2022/03/13 04:09:09;;;;;;;11.43;5.83;;;;;;;8.00;65.09;101277.72;5072463;28;20024;-85
2022/03/13 04:11:34;;;;;;;;;;;;;;;8.02;64.90;101282.06;5073011;28;20465;-85
2022/03/13 04:14:00;;;;;;;15.10;7.07;;;;;;;7.99;64.13;101276.00;5073756;28;19916;-85
2022/03/13 04:16:25;;;;;;;15.40;7.18;;;;;;;7.93;65.50;101263.94;5074779;28;20036;-86
2022/03/13 04:18:50;;;;;;;16.88;8.27;;;;;;;7.98;65.09;101274.28;5074965;28;20096;-86
2022/03/13 04:21:17;;;;;;;16.50;7.90;;;;;;;8.00;64.48;101270.84;5075529;28;20024;-85
2022/03/13 04:23:43;;;;;;;16.60;8.20;;;;;;;7.97;64.76;101265.66;5073193;28;20035;-85
2022/03/13 04:26:10;;;;;;;16.17;8.17;;;;;;;8.02;64.70;101274.28;5073191;28;20029;-86
2022/03/13 04:28:35;;;;;;;18.15;8.65;;;;;;;7.99;64.09;101270.84;5072725;28;20483;-85
2022/03/13 04:31:00;;;;;;;17.87;8.40;;;;;;;8.00;63.83;101277.72;5072242;28;20020;-86
2022/03/13 04:33:33;;;;;;;16.57;7.90;;;;;;;8.01;65.70;101279.44;5072580;28;20071;-85
2022/03/13 04:36:05;;;;;;;16.92;8.13;;;;;;;8.02;65.45;101283.75;5072900;28;20032;-86
2022/03/13 04:38:30;;;;;;;16.73;8.02;;;;;;;8.01;64.84;101279.44;5072081;28;20467;-85
2022/03/13 04:40:56;;;;;;;17.47;8.30;;;;;;;7.99;64.38;101278.59;5072587;28;20103;-86
2022/03/13 04:43:23;;;;;;;17.55;8.05;;;;;;;7.99;64.38;101278.59;5072762;28;20154;-84
2022/03/13 04:45:49;;;;;;;17.67;8.05;;;;;;;7.97;66.01;101282.91;5072351;28;20094;-86
2022/03/13 04:48:16;;;;;;;18.40;8.57;;;;;;;7.96;63.84;101278.59;5072543;28;20032;-86
2022/03/13 04:50:41;;;;;;;18.27;9.40;;;;;;;7.91;66.01;101280.28;5072586;28;20021;-86
2022/03/13 04:53:08;;;;;;;18.37;8.90;;;;;;;7.85;66.58;101283.72;5073026;28;20112;-86
2022/03/13 04:55:33;;;;;;;19.65;10.10;;;;;;;7.80;66.00;101278.53;5072506;28;20111;-87
2022/03/13 04:57:58;;;;;;;21.63;11.73;;;;;;;7.73;68.19;101279.38;5072486;28;20533;-88
2022/03/13 05:00:26;;;;;;;19.67;10.23;;;;;;;7.65;68.81;101274.19;5073131;28;20388;-88
2022/03/13 05:02:51;;;;;;;20.05;10.57;;;;;;;7.62;66.15;101268.13;5075284;28;20050;-88
2022/03/13 05:05:17;;;;;;;20.30;10.80;;;;;;;7.59;68.29;101263.84;5077231;28;20062;-88
2022/03/13 05:07:42;;;;;;;21.45;11.68;;;;;;;7.56;67.13;101267.25;5077049;28;20038;-88
2022/03/13 05:10:10;;;;;;;19.47;10.40;;;;;;;7.48;68.57;101256.03;5077427;28;20107;-88
2022/03/13 05:12:39;;;;;;;19.02;9.65;;;;;;;7.46;67.86;101260.31;5076630;28;20470;-88
2022/03/13 05:15:05;;;;;;;20.23;10.10;;;;;;;7.37;68.55;101253.41;5075547;28;20040;-87
2022/03/13 05:17:30;;;;;;;20.93;11.17;;;;;;;7.46;66.99;101256.88;5076586;28;20032;-88
2022/03/13 05:20:14;;;;;;;22.00;11.20;;;;;;;7.36;68.21;101254.28;5076735;28;20037;-87
2022/03/13 05:22:45;;;;;;;18.92;9.65;;;;;;;7.31;67.85;101248.22;5076335;28;20025;-88
2022/03/13 05:25:10;;;;;;;18.73;9.57;;;;;;;7.35;67.85;101255.13;5076924;28;20031;-88
2022/03/13 05:27:36;;;;;;;21.03;10.90;;;;;;;7.31;67.83;101244.78;5075510;28;20036;-87
2022/03/13 05:30:01;;;;;;;21.27;11.30;;;;;;;7.31;69.87;101257.69;5076493;28;20024;-87
2022/03/13 05:32:26;;;;;;;20.10;10.02;;;;;;;7.31;68.99;101255.09;5076373;28;20028;-87
2022/03/13 05:35:10;;;;;;;20.30;10.50;;;;;;;7.27;66.62;101251.63;5075934;28;20073;-87
2022/03/13 05:37:51;;;;;;;19.70;9.68;;;;;;;7.32;68.19;101259.41;5076009;28;20394;-88
2022/03/13 05:42:56;;;;;;;18.42;9.30;;;;;;;7.28;68.07;101255.09;5076088;28;20036;-87
2022/03/13 05:45:23;;;;;;;;;;;;;;;7.31;67.31;101262.84;5075961;28;20090;-87
2022/03/13 05:47:56;;;;;;;20.00;10.25;;;;;;;7.30;67.78;101264.56;5075683;28;20321;-87
2022/03/13 05:50:24;;;;;;;19.60;10.63;;;;;;;7.26;68.22;101266.25;5076052;28;20048;-86
2022/03/13 05:52:50;;;;;;;21.70;11.70;;;;;;;7.28;68.47;101273.16;5075764;28;20082;-87
2022/03/13 05:55:17;;;;;;;21.38;10.93;;;;;;;7.32;66.92;101272.31;5075447;28;20025;-87
2022/03/13 05:57:43;;;;;;;21.95;11.93;;;;;;;7.29;67.15;101267.13;5075572;28;20442;-87
2022/03/13 06:00:11;;;;;;;22.07;12.00;;;;;;;7.28;67.84;101286.91;5075556;28;20025;-87
2022/03/13 06:02:38;;;;;;;22.85;12.93;;;;;;;7.30;67.00;101280.03;5074727;28;20033;-87
2022/03/13 06:05:09;;;;;;;22.48;12.63;;;;;;;7.22;68.08;101272.25;5075519;28;20032;-86
2022/03/13 06:07:35;;;;;;;22.17;12.18;;;;;;;7.29;66.79;101272.28;5075594;28;20028;-87
2022/03/13 06:10:04;;;;;;;20.83;11.10;;;;;;;7.23;67.84;101268.81;5074750;28;20025;-87
2022/03/13 06:12:30;;;;;;;20.35;10.95;;;;;;;7.25;67.67;101274.84;5074960;28;20047;-86
2022/03/13 06:14:57;;;;;;;20.30;10.70;;;;;;;7.33;66.23;101281.78;5075001;28;20052;-86
2022/03/13 06:17:25;;;;;;;21.58;11.02;;;;;;;7.24;66.72;101272.28;5075279;28;20389;-86
2022/03/13 06:19:51;;;;;;;19.30;9.48;;;;;;;7.26;66.73;101275.75;5074905;28;20021;-86
2022/03/13 06:22:18;;;;;;;19.50;9.47;;;;;;;7.25;66.65;101274.84;5074956;28;20483;-86
2022/03/13 06:24:44;;;;;;;20.85;10.55;;;;;;;7.22;66.52;101269.66;5075774;28;20055;-89
2022/03/13 06:27:10;;;;;;;19.38;9.43;;;;;;;7.24;66.20;101278.28;5075599;28;20157;-85
2022/03/13 06:29:37;;;;;;;19.47;9.77;;;;;;;7.25;66.51;101280.03;5074792;28;20117;-86
2022/03/13 06:32:03;;;;;;;20.30;10.80;;;;;;;7.33;66.15;101286.94;5075090;28;20077;-86
2022/03/13 06:34:29;;;;;;;20.40;10.50;;;;;;;7.26;67.00;101286.06;5074762;28;20031;-85
2022/03/13 06:36:54;;;;;;;20.25;10.82;;;;;;;7.26;66.62;101274.00;5076703;28;20623;-85
2022/03/13 06:39:19;;;;;;;18.63;9.27;;;;;;;7.29;66.18;101280.91;5074630;28;20025;-86
2022/03/13 06:41:54;;;;;;;18.40;8.88;;;;;;;7.29;66.25;101273.16;5076329;28;20382;-85
2022/03/13 06:44:23;;;;;;;17.40;8.13;;;;;;;7.35;66.57;101277.47;5074960;28;20521;-86
2022/03/13 06:46:48;;;;;;;18.80;8.70;;;;;;;7.30;66.01;101280.03;5074558;28;20541;-86
2022/03/13 06:49:14;;;;;;;19.47;9.70;;;;;;;7.30;66.39;101279.19;5075405;28;20177;-86
2022/03/13 06:51:39;;;;;;;19.20;9.60;;;;;;;7.29;67.08;101273.16;5074872;28;20469;-86
2022/03/13 06:54:08;;;;;;;18.45;8.93;;;;;;;7.33;65.97;101271.44;5075422;28;20464;-86
2022/03/13 06:56:40;;;;;;;16.52;8.35;;;;;;;7.29;66.53;101273.16;5075258;22;20385;-86
2022/03/13 06:59:10;;;;;;;15.98;7.55;;;;;;;7.36;67.04;101279.22;5055227;28;20029;-86
2022/03/13 07:01:38;;;;;;;15.93;7.32;;;;;;;7.33;66.90;101268.84;5054274;28;20036;-86
2022/03/13 07:04:09;;;;;;;16.63;7.90;;;;;;;7.39;66.66;101280.09;5053583;28;20032;-86
2022/03/13 07:06:46;;;;;;;17.13;8.10;;;;;;;7.43;66.73;101278.38;5054234;28;20032;-86
2022/03/13 07:09:11;;;;;;;19.92;9.57;;;;;;;7.58;64.84;101281.03;5054329;28;20032;-86
2022/03/13 07:11:37;;;;;;;18.57;8.57;;;;;;;7.54;65.69;101278.44;5053208;28;20033;-85
2022/03/13 07:14:04;;;;;;;17.97;8.40;;;;;;;7.52;65.54;101269.81;5053721;28;20032;-85
2022/03/13 07:16:30;;;;;;;17.02;8.90;;;;;;;7.62;65.59;101271.56;5053412;28;20036;-85
2022/03/13 07:18:55;;;;;;;19.53;10.33;;;;;;;7.65;65.59;101276.75;5054034;28;20021;-90
2022/03/13 07:21:21;;;;;;;19.88;10.65;;;;;;;7.66;66.07;101275.03;5053632;28;20036;-85
2022/03/13 07:23:46;;;;;;;21.00;10.13;;;;;;;7.70;65.55;101281.94;5054064;28;20017;-85
2022/03/13 07:26:11;;;;;;;20.17;9.90;;;;;;;7.75;64.97;101275.09;5052762;28;20033;-85
2022/03/13 07:28:52;;;;;;;22.30;11.17;;;;;;;7.74;64.75;101265.59;5035541;28;20032;-89
2022/03/13 07:31:20;;;;;;;20.35;11.13;;;;;;;7.77;64.90;101264.75;5054800;28;20100;-92
2022/03/13 07:33:58;;;;;;;19.10;9.75;;;;;;;7.80;65.30;101265.59;5037695;28;20043;-92
2022/03/13 07:36:24;;;;;;;19.88;10.35;;;;;;;7.83;65.07;101267.31;5054697;28;20021;-87
2022/03/13 07:38:50;;;;;;;19.57;9.90;;;;;;;7.85;65.22;101269.09;5053935;28;20104;-81
2022/03/13 07:41:21;;;;;;;19.80;10.27;;;;;;;7.89;64.97;101262.19;5053023;28;20381;-83
2022/03/13 07:43:48;;;;;;;19.40;10.07;;;;;;;7.93;65.01;101273.41;5053514;28;20032;-84
2022/03/13 07:46:13;;;;;;;18.83;9.70;;;;;;;7.99;65.57;101268.25;5053695;28;20043;-81
2022/03/13 07:48:38;;;;;;;20.43;10.57;;;;;;;8.02;64.49;101265.66;5052764;28;20104;-81
2022/03/13 07:51:04;;;;;;;19.50;9.90;;;;;;;8.03;64.78;101263.09;5053603;28;20478;-80
2022/03/13 07:53:30;;;;;;;19.70;9.63;;;;;;;8.11;64.85;101264.81;5052680;28;20067;-81
2022/03/13 07:55:55;;;;;;;20.03;10.77;;;;;;;8.14;64.10;101263.09;5053093;28;20036;-81
2022/03/13 07:58:21;;;;;;;19.15;9.52;;;;;;;8.15;64.43;101275.16;5052731;28;20033;-82
2022/03/13 08:00:47;;;;;;;19.30;10.00;;;;;;;8.18;64.41;101275.19;5052912;28;20017;-84
2022/03/13 08:03:12;;;;;;;20.33;10.30;;;;;;;8.23;64.15;101269.13;5052991;28;20048;-82
2022/03/13 08:05:38;;;;;;;19.02;9.68;;;;;;;8.25;63.90;101268.31;5052917;28;20288;-82
2022/03/13 08:08:04;;;;;;;18.88;9.43;;;;;;;8.26;64.81;101264.84;5052548;28;20056;-82
2022/03/13 08:10:30;;;;;;;19.50;9.25;;;;;;;8.33;64.64;101266.56;5052742;28;20025;-82
2022/03/13 08:12:55;;;;;;;17.13;8.30;;;;;;;8.35;65.04;101267.44;5053227;28;20044;-83
2022/03/13 08:15:21;;;;;;;18.80;9.17;;;;;;;8.43;64.79;101272.63;5052136;28;20021;-82
2022/03/13 08:17:46;;;;;;;19.90;10.67;;;;;;;8.48;64.33;101270.06;5052769;28;20025;-81
2022/03/13 08:20:13;;;;;;;20.57;11.10;;;;;;;8.52;64.02;101265.75;5053216;28;20029;-82
2022/03/13 08:22:38;;;;;;;20.48;10.23;;;;;;;8.53;64.54;101264.91;5052088;28;20025;-81
2022/03/13 08:25:06;;;;;;;19.67;10.33;;;;;;;8.65;63.70;101264.91;5052697;28;20021;-82
2022/03/13 08:27:31;;;;;;;19.80;10.75;;;;;;;8.70;63.66;101270.06;5052899;28;20086;-82
2022/03/13 08:29:58;;;;;;;21.57;11.47;;;;;;;8.75;62.48;101255.38;5051988;28;20103;-81
2022/03/13 08:32:23;;;;;;;21.35;11.88;;;;;;;8.87;62.43;101257.97;5052434;28;20025;-81
2022/03/13 08:34:50;;;;;;;22.27;12.10;;;;;;;8.88;62.24;101259.69;5052581;28;20032;-83
2022/03/13 08:37:16;;;;;;;20.77;11.30;;;;;;;8.87;62.39;101262.28;5051348;28;20367;-81
2022/03/13 08:39:42;;;;;;;22.03;12.17;;;;;;;9.10;61.57;101263.09;5053672;28;20032;-82
2022/03/13 08:42:08;;;;;;;21.30;11.80;;;;;;;9.00;61.53;101261.41;5053037;28;20384;-81
2022/03/13 08:44:34;;;;;;;20.17;10.52;;;;;;;9.11;61.36;101261.38;5052263;28;20029;-81
2022/03/13 08:46:59;;;;;;;20.30;10.83;;;;;;;9.19;61.47;101271.72;5052769;28;20096;-81
2022/03/13 08:49:25;;;;;;;20.03;10.50;;;;;;;9.25;61.46;101275.16;5052399;28;20017;-82
2022/03/13 08:51:56;;;;;;;20.08;10.93;;;;;;;9.35;61.94;101268.19;5053075;28;20021;-80
2022/03/13 08:54:22;;;;;;;21.70;11.95;;;;;;;9.45;60.51;101260.41;5052661;28;20099;-81
2022/03/13 08:56:48;;;;;;;22.90;12.43;;;;;;;9.67;59.92;101264.63;5052221;28;20048;-89
2022/03/13 08:59:15;;;;;;;22.77;13.27;;;;;;;9.64;59.85;101258.56;5052617;28;20465;-86
2022/03/13 09:01:41;;;;;;;;;;;;;;;9.69;59.97;101256.84;5056438;28;20035;-86
2022/03/13 09:04:06;;;;;;;21.50;11.33;;;;;;;9.73;58.72;101254.22;5052868;28;19913;-85
2022/03/13 09:06:31;;;;;;;22.10;12.30;;;;;;;9.85;58.54;101244.66;5052704;28;20496;-89
2022/03/13 09:09:19;;;;;;;20.67;11.07;;;;;;;9.98;59.21;101251.50;5056961;28;20065;-87
2022/03/13 09:11:47;;;;;;;22.00;11.93;;;;;;;10.17;58.68;101241.88;5051938;28;20029;-88
2022/03/13 09:14:12;;;;;;;22.95;13.35;;;;;;;10.37;58.53;101243.44;5052220;28;20035;-87
2022/03/13 09:16:42;;;;;;;20.47;11.73;;;;;;;10.46;58.37;101240.78;5051990;28;20029;-86
2022/03/13 09:19:08;;;;;;;21.38;12.13;;;;;;;10.64;58.03;101237.19;5052093;28;20067;-87
2022/03/13 09:21:38;;;;;;;21.57;11.80;;;;;;;10.76;57.12;101241.38;5052393;28;20057;-87
2022/03/13 09:24:07;;;;;;;21.17;12.27;;;;;;;10.93;56.01;101245.56;5052716;28;20071;-87
2022/03/13 09:26:34;;;;;;;24.02;13.55;;;;;;;11.11;56.73;101245.34;5051871;28;20021;-87
2022/03/13 09:29:03;;;;;;;23.00;13.43;;;;;;;11.19;56.98;101247.03;5054401;28;20017;-87
2022/03/13 09:31:29;;;;;;;21.48;12.43;;;;;;;11.32;56.68;101237.34;5052637;28;20028;-86
2022/03/13 09:33:54;;;;;;;21.73;11.93;;;;;;;11.49;56.43;101239.72;5051847;28;20434;-86
2022/03/13 09:36:19;;;;;;;20.53;11.73;;;;;;;11.56;56.63;101225.75;5051841;28;20025;-85
2022/03/13 09:38:52;;;;;;;22.90;13.30;;;;;;;11.74;54.62;101245.44;5052027;28;20051;-85
2022/03/13 09:41:18;;;;;;;23.58;13.48;;;;;;;11.89;54.78;101237.44;5051439;28;20178;-84
2022/03/13 09:43:46;;;;;;;22.33;12.50;;;;;;;11.90;54.71;101241.78;5052288;28;20025;-85
2022/03/13 09:46:12;;;;;;;21.77;12.23;;;;;;;12.05;54.48;101243.31;5051722;28;20299;-85
2022/03/13 09:48:38;;;;;;;21.42;12.07;;;;;;;12.18;55.08;101243.13;5053386;28;20480;-85
2022/03/13 09:51:04;;;;;;;21.13;12.20;;;;;;;12.31;55.08;101244.66;5055895;28;20039;-85
2022/03/13 09:53:30;;;;;;;20.33;11.68;;;;;;;12.47;54.33;101240.06;5055022;28;20036;-85
2022/03/13 09:55:56;;;;;;;22.73;13.30;;;;;;;12.73;52.80;101238.72;5055388;28;20036;-86
2022/03/13 09:58:21;;;;;;;21.70;12.77;;;;;;;12.72;53.34;101237.00;5055324;28;20021;-85
2022/03/13 10:00:50;;;;;;;21.63;12.33;;;;;;;12.82;52.76;101245.50;5055350;28;20469;-85
2022/03/13 10:03:15;;;;;;;21.60;12.45;;;;;;;12.91;52.55;101240.13;5055176;28;20021;-85
2022/03/13 10:05:43;;;;;;;22.17;12.27;;;;;;;12.98;53.05;101243.47;5055705;28;20504;-86
2022/03/13 10:08:08;;;;;;;19.73;10.90;;;;;;;13.05;52.97;101234.69;5055086;28;20028;-85
2022/03/13 10:10:45;;;;;;;20.50;11.10;;;;;;;13.15;52.28;101224.91;5055120;28;20358;-86
2022/03/13 10:13:14;;;;;;;19.00;10.05;;;;;;;13.25;53.19;101233.41;5055029;28;20028;-85
2022/03/13 10:15:46;;;;;;;20.25;10.68;;;;;;;13.36;52.12;101231.44;5054582;28;20043;-84
2022/03/13 10:18:22;;;;;;;21.27;11.85;;;;;;;13.44;51.29;101223.50;5055306;28;20075;-85
2022/03/13 10:20:50;;;;;;;20.65;11.35;;;;;;;13.43;51.97;101222.63;5055669;28;20909;-85
2022/03/13 10:23:19;;;;;;;20.20;10.00;;;;;;;13.52;51.91;101218.09;5053890;28;20033;-85
2022/03/13 10:25:49;;;;;;;18.60;10.05;;;;;;;13.61;51.47;101217.94;5055090;28;20114;-85
2022/03/13 10:28:31;;;;;;;18.80;10.15;;;;;;;13.74;51.61;101216.75;5054694;28;20481;-85
2022/03/13 10:30:59;;;;;;;20.25;10.50;;;;;;;14.00;50.46;101212.69;5054674;28;20032;-83
2022/03/13 10:33:43;;;;;;;19.67;10.02;;;;;;;14.08;50.53;101207.28;5059398;28;20032;-85
2022/03/13 10:36:16;;;;;;;21.27;11.50;;;;;;;14.26;50.00;101203.38;5072878;28;20133;-84
2022/03/13 10:38:42;;;;;;;21.55;11.85;;;;;;;14.36;48.60;101202.22;5066901;28;20024;-86
2022/03/13 10:41:12;;;;;;;20.10;11.00;;;;;;;14.39;48.90;101203.06;5074560;28;20545;-85
2022/03/13 10:43:55;;;;;;;20.20;11.20;;;;;;;14.44;48.53;101196.81;5074494;28;20024;-85
2022/03/13 10:46:28;;;;;;;19.77;10.57;;;;;;;14.67;48.86;101204.06;5053353;28;20033;-85
2022/03/13 10:48:54;;;;;;;19.30;10.43;;;;;;;14.59;48.63;101192.94;5054584;28;20511;-85
2022/03/13 10:51:44;;;;;;;18.25;9.57;;;;;;;14.67;49.19;101192.78;5052474;28;20021;-85
2022/03/13 10:54:26;;;;;;;17.00;8.70;;;;;;;14.75;49.11;101200.41;5054245;28;20485;-85
2022/03/13 10:57:08;;;;;;;18.98;9.70;;;;;;;14.79;47.07;101188.97;5053867;28;20405;-85
2022/03/13 10:59:33;;;;;;;18.25;9.10;;;;;;;14.82;48.95;101196.72;5054264;28;20021;-86
2022/03/13 11:02:17;;;;;;;17.70;9.20;;;;;;;14.88;48.60;101196.53;5054905;28;20461;-86
2022/03/13 11:04:51;;;;;;;18.63;9.43;;;;;;;14.92;47.41;101192.97;5070372;28;20023;-85
2022/03/13 11:07:18;;;;;;;19.23;10.13;;;;;;;15.07;47.47;101185.59;5057435;28;20025;-84
2022/03/13 11:09:43;;;;;;;18.23;9.98;;;;;;;15.10;47.20;101186.34;5054884;28;20029;-85
2022/03/13 11:12:10;;;;;;;17.97;9.47;;;;;;;15.19;47.98;101190.47;5052826;28;20036;-85
2022/03/13 11:14:36;;;;;;;18.35;9.70;;;;;;;15.39;46.04;101184.63;5053759;28;20939;-85
2022/03/13 11:17:06;;;;;;;17.87;9.07;;;;;;;15.51;48.24;101179.94;5054158;28;20021;-85
2022/03/13 11:19:36;;;;;;;18.55;8.90;;;;;;;15.67;47.38;101183.81;5052739;28;20116;-85
2022/03/13 11:22:02;;;;;;;18.17;9.30;;;;;;;15.77;45.85;101173.88;5054201;28;20025;-85
2022/03/13 11:24:28;;;;;;;18.45;9.63;;;;;;;15.65;46.23;101174.28;5053346;28;20037;-87
2022/03/13 11:26:54;;;;;;;17.95;9.70;;;;;;;15.62;46.54;101177.00;5053390;28;20386;-84
2022/03/13 11:29:55;;;;;;;18.30;9.40;;;;;;;15.57;46.52;101169.28;5053694;28;20021;-83
2022/03/13 11:32:32;;;;;;;17.65;9.20;;;;;;;15.63;46.30;101176.09;4971842;28;20499;-83